createdAt,value
2018-09-22T00:00:32.839Z,15.28
2018-09-22T00:03:01.407Z,15.23
2018-09-22T00:05:29.930Z,15.17
2018-09-22T00:07:58.687Z,15.18
2018-09-22T00:10:27.346Z,15.14
2018-09-22T00:12:56.018Z,15.06
2018-09-22T00:15:24.533Z,14.98
2018-09-22T00:17:52.996Z,14.97
2018-09-22T00:20:22.078Z,14.96
2018-09-22T00:22:50.553Z,14.93
2018-09-22T00:25:32.695Z,14.97
2018-09-22T00:28:01.261Z,15.05
2018-09-22T00:30:29.863Z,15.06
2018-09-22T00:32:58.402Z,15.08
2018-09-22T00:35:26.965Z,15.09
2018-09-22T00:37:55.467Z,15.05
2018-09-22T00:40:23.993Z,14.99
2018-09-22T00:42:52.593Z,14.97
2018-09-22T00:45:30.586Z,14.95
2018-09-22T00:47:59.462Z,14.91
2018-09-22T00:50:27.906Z,14.91
2018-09-22T00:52:56.410Z,14.90
2018-09-22T00:55:25.376Z,14.93
2018-09-22T00:57:54.000Z,14.93
2018-09-22T01:00:22.806Z,14.98
2018-09-22T01:02:51.348Z,14.97
2018-09-22T01:05:19.975Z,14.90
2018-09-22T01:07:48.607Z,14.84
2018-09-22T01:10:17.122Z,14.87
2018-09-22T01:12:45.671Z,14.86
2018-09-22T01:15:14.170Z,14.88
2018-09-22T01:17:42.746Z,14.86
2018-09-22T01:20:11.454Z,14.83
2018-09-22T01:22:40.238Z,14.83
2018-09-22T01:25:09.228Z,14.81
2018-09-22T01:27:37.714Z,14.80
2018-09-22T01:30:06.316Z,14.82
2018-09-22T01:32:35.365Z,14.78
2018-09-22T01:35:05.072Z,14.74
2018-09-22T01:37:33.802Z,14.71
2018-09-22T01:40:02.686Z,14.68
2018-09-22T01:42:31.369Z,14.67
2018-09-22T01:45:00.098Z,14.62
2018-09-22T01:47:28.610Z,14.63
2018-09-22T01:49:57.210Z,14.63
2018-09-22T01:52:25.826Z,14.56
2018-09-22T01:54:54.354Z,14.53
2018-09-22T01:57:22.970Z,14.46
2018-09-22T01:59:51.624Z,14.43
2018-09-22T02:02:20.260Z,14.39
2018-09-22T02:04:48.818Z,14.35
2018-09-22T02:07:17.348Z,14.33
2018-09-22T02:09:46.078Z,14.39
2018-09-22T02:12:14.808Z,14.42
2018-09-22T02:14:48.583Z,14.45
2018-09-22T02:17:18.194Z,14.39
2018-09-22T02:19:47.165Z,14.32
2018-09-22T02:22:16.471Z,14.28
2018-09-22T02:24:44.966Z,14.26
2018-09-22T02:27:13.486Z,14.28
2018-09-22T02:29:42.050Z,14.26
2018-09-22T02:32:10.526Z,14.23
2018-09-22T02:34:39.088Z,14.18
2018-09-22T02:37:07.616Z,14.15
2018-09-22T02:39:36.980Z,14.11
2018-09-22T02:42:05.452Z,14.10
2018-09-22T02:44:33.984Z,14.09
2018-09-22T02:47:02.426Z,14.04
2018-09-22T02:49:31.184Z,14.00
2018-09-22T02:51:59.802Z,13.99
2018-09-22T02:54:28.230Z,13.93
2018-09-22T02:56:56.769Z,13.92
2018-09-22T02:59:25.339Z,13.89
2018-09-22T03:01:53.878Z,13.93
2018-09-22T03:04:22.499Z,13.94
2018-09-22T03:06:51.033Z,13.89
2018-09-22T03:09:19.532Z,13.88
2018-09-22T03:11:48.138Z,13.88
2018-09-22T03:14:17.257Z,13.84
2018-09-22T03:16:46.157Z,13.84
2018-09-22T03:19:14.925Z,13.81
2018-09-22T03:21:43.534Z,13.82
2018-09-22T03:24:12.934Z,13.87
2018-09-22T03:26:41.556Z,13.83
2018-09-22T03:29:10.141Z,13.78
2018-09-22T03:31:38.971Z,13.70
2018-09-22T03:34:07.778Z,13.67
2018-09-22T03:36:36.737Z,13.67
2018-09-22T03:39:07.682Z,13.66
2018-09-22T03:41:36.322Z,13.65
2018-09-22T03:44:04.913Z,13.67
2018-09-22T03:46:33.657Z,13.68
2018-09-22T03:49:02.421Z,13.68
2018-09-22T03:51:31.274Z,13.67
2018-09-22T03:53:59.792Z,13.66
2018-09-22T03:56:28.287Z,13.64
2018-09-22T03:58:57.030Z,13.62
2018-09-22T04:01:25.658Z,13.64
2018-09-22T04:03:54.238Z,13.65
2018-09-22T04:06:23.306Z,13.61
2018-09-22T04:08:52.088Z,13.63
2018-09-22T04:11:20.678Z,13.63
2018-09-22T04:13:49.564Z,13.59
2018-09-22T04:16:18.174Z,13.58
2018-09-22T04:18:46.951Z,13.58
2018-09-22T04:21:15.416Z,13.56
2018-09-22T04:23:44.086Z,13.58
2018-09-22T04:26:12.753Z,13.60
2018-09-22T04:28:41.230Z,13.61
2018-09-22T04:31:10.208Z,13.65
2018-09-22T04:33:38.914Z,13.70
2018-09-22T04:36:07.640Z,13.73
2018-09-22T04:38:36.158Z,13.71
2018-09-22T04:41:05.059Z,13.65
2018-09-22T04:43:33.673Z,13.68
2018-09-22T04:46:02.108Z,13.70
2018-09-22T04:48:30.579Z,13.72
2018-09-22T04:50:59.164Z,13.68
2018-09-22T04:53:27.707Z,13.67
2018-09-22T04:55:56.858Z,13.63
2018-09-22T04:58:25.543Z,13.61
2018-09-22T05:00:54.160Z,13.63
2018-09-22T05:03:22.938Z,13.57
2018-09-22T05:05:51.592Z,13.55
2018-09-22T05:08:20.206Z,13.54
2018-09-22T05:10:48.653Z,13.53
2018-09-22T05:13:17.246Z,13.47
2018-09-22T05:15:45.820Z,13.44
2018-09-22T05:18:14.741Z,13.41
2018-09-22T05:20:43.260Z,13.41
2018-09-22T05:23:12.032Z,13.42
2018-09-22T05:25:40.734Z,13.41
2018-09-22T05:28:09.383Z,13.43
2018-09-22T05:30:38.263Z,13.44
2018-09-22T05:33:06.937Z,13.40
2018-09-22T05:35:35.532Z,13.38
2018-09-22T05:38:04.088Z,13.41
2018-09-22T05:40:32.638Z,13.43
2018-09-22T05:43:01.190Z,13.42
2018-09-22T05:45:29.849Z,13.39
2018-09-22T05:47:58.342Z,13.34
2018-09-22T05:50:27.043Z,13.30
2018-09-22T05:52:55.650Z,13.26
2018-09-22T05:55:24.491Z,13.26
2018-09-22T05:57:53.358Z,13.25
2018-09-22T06:00:21.978Z,13.25
2018-09-22T06:02:50.526Z,13.22
2018-09-22T06:05:18.984Z,13.22
2018-09-22T06:07:47.906Z,13.20
2018-09-22T06:10:16.864Z,13.21
2018-09-22T06:12:45.693Z,13.25
2018-09-22T06:15:14.242Z,13.28
2018-09-22T06:17:42.946Z,13.32
2018-09-22T06:20:11.753Z,13.31
2018-09-22T06:22:40.443Z,13.33
2018-09-22T06:25:09.006Z,13.32
2018-09-22T06:27:37.483Z,13.41
2018-09-22T06:30:06.102Z,13.40
2018-09-22T06:32:34.657Z,13.43
2018-09-22T06:35:03.541Z,13.47
2018-09-22T06:37:32.205Z,13.55
2018-09-22T06:40:00.818Z,13.61
2018-09-22T06:42:30.268Z,13.69
2018-09-22T06:44:59.655Z,13.75
2018-09-22T06:47:28.278Z,13.80
2018-09-22T06:49:57.038Z,13.84
2018-09-22T06:52:25.768Z,13.85
2018-09-22T06:54:54.415Z,13.89
2018-09-22T06:57:23.031Z,13.90
2018-09-22T06:59:51.871Z,13.94
2018-09-22T07:02:20.937Z,13.99
2018-09-22T07:04:49.806Z,14.05
2018-09-22T07:07:18.564Z,14.16
2018-09-22T07:09:47.178Z,14.20
2018-09-22T07:12:15.726Z,14.21
2018-09-22T07:14:44.468Z,14.27
2018-09-22T07:17:13.237Z,14.35
2018-09-22T07:19:41.845Z,14.40
2018-09-22T07:22:15.571Z,14.48
2018-09-22T07:24:44.513Z,14.49
2018-09-22T07:27:13.217Z,14.55
2018-09-22T07:29:41.904Z,14.63
2018-09-22T07:32:10.644Z,14.71
2018-09-22T07:34:40.717Z,14.69
2018-09-22T07:37:09.384Z,14.75
2018-09-22T07:39:38.239Z,14.79
2018-09-22T07:42:07.067Z,14.76
2018-09-22T07:44:35.706Z,14.79
2018-09-22T07:47:04.708Z,14.85
2018-09-22T07:49:33.321Z,14.89
2018-09-22T07:52:02.180Z,15.02
2018-09-22T07:54:30.817Z,15.10
2018-09-22T07:56:59.658Z,15.13
2018-09-22T07:59:28.262Z,15.13
2018-09-22T08:01:56.903Z,15.18
2018-09-22T08:04:25.564Z,15.27
2018-09-22T08:06:54.136Z,15.32
2018-09-22T08:09:22.812Z,15.31
2018-09-22T08:11:51.620Z,15.38
2018-09-22T08:14:20.203Z,15.41
2018-09-22T08:16:49.590Z,15.51
2018-09-22T08:19:18.212Z,15.58
2018-09-22T08:21:47.267Z,15.59
2018-09-22T08:24:15.968Z,15.63
2018-09-22T08:26:45.095Z,15.67
2018-09-22T08:29:14.041Z,15.76
2018-09-22T08:31:42.686Z,15.84
2018-09-22T08:34:11.318Z,15.89
2018-09-22T08:36:40.024Z,15.91
2018-09-22T08:39:10.652Z,15.97
2018-09-22T08:41:39.241Z,16.07
2018-09-22T08:44:07.996Z,16.23
2018-09-22T08:46:37.975Z,16.36
2018-09-22T08:49:06.860Z,16.49
2018-09-22T08:51:35.841Z,16.53
2018-09-22T08:54:05.054Z,16.57
2018-09-22T08:56:33.680Z,16.64
2018-09-22T08:59:03.210Z,16.71
2018-09-22T09:01:31.765Z,16.80
2018-09-22T09:04:00.397Z,16.89
2018-09-22T09:06:28.984Z,16.91
2018-09-22T09:08:57.652Z,16.98
2018-09-22T09:11:26.223Z,17.08
2018-09-22T09:13:54.795Z,17.15
2018-09-22T09:16:23.626Z,17.24
2018-09-22T09:18:54.326Z,17.40
2018-09-22T09:21:23.747Z,17.51
2018-09-22T09:23:52.384Z,17.68
2018-09-22T09:26:21.589Z,17.90
2018-09-22T09:28:50.342Z,18.10
2018-09-22T09:31:20.328Z,18.27
2018-09-22T09:33:50.796Z,18.51
2018-09-22T09:36:20.444Z,18.63
2018-09-22T09:38:51.079Z,18.61
2018-09-22T09:41:19.764Z,18.69
2018-09-22T09:43:49.263Z,18.68
2018-09-22T09:46:18.055Z,18.41
2018-09-22T09:48:46.644Z,17.99
2018-09-22T09:51:15.405Z,17.75
2018-09-22T09:53:44.109Z,17.62
2018-09-22T09:56:12.626Z,17.45
2018-09-22T09:58:41.308Z,17.26
2018-09-22T10:01:10.009Z,17.28
2018-09-22T10:03:38.737Z,17.21
2018-09-22T10:06:07.535Z,17.10
2018-09-22T10:08:36.358Z,17.23
2018-09-22T10:11:05.108Z,17.54
2018-09-22T10:13:33.739Z,18.22
2018-09-22T10:16:02.489Z,18.66
2018-09-22T10:18:31.083Z,18.61
2018-09-22T10:20:59.909Z,18.25
2018-09-22T10:23:28.498Z,17.91
2018-09-22T10:25:57.080Z,17.70
2018-09-22T10:28:25.727Z,17.60
2018-09-22T10:30:54.541Z,17.52
2018-09-22T10:33:23.107Z,17.47
2018-09-22T10:35:51.850Z,17.49
2018-09-22T10:38:20.556Z,17.63
2018-09-22T10:40:49.175Z,17.76
2018-09-22T10:43:17.847Z,17.76
2018-09-22T10:45:46.450Z,17.77
2018-09-22T10:48:15.167Z,17.64
2018-09-22T10:50:44.075Z,17.62
2018-09-22T10:53:12.913Z,17.58
2018-09-22T10:55:41.519Z,17.57
2018-09-22T10:58:10.166Z,17.54
2018-09-22T11:00:38.626Z,17.59
2018-09-22T11:03:07.200Z,17.60
2018-09-22T11:05:35.891Z,17.63
2018-09-22T11:08:04.411Z,17.66
2018-09-22T11:10:33.073Z,17.66
2018-09-22T11:13:01.894Z,17.61
2018-09-22T11:15:30.532Z,17.65
2018-09-22T11:17:59.156Z,17.68
2018-09-22T11:20:27.913Z,17.71
2018-09-22T11:22:56.527Z,17.69
2018-09-22T11:25:25.131Z,17.71
2018-09-22T11:27:53.899Z,17.69
2018-09-22T11:30:22.637Z,17.63
2018-09-22T11:32:51.317Z,17.58
2018-09-22T11:35:20.357Z,17.53
2018-09-22T11:37:49.725Z,17.47
2018-09-22T11:40:18.549Z,17.48
2018-09-22T11:42:47.911Z,17.57
2018-09-22T11:45:16.701Z,17.66
2018-09-22T11:47:45.417Z,17.73
2018-09-22T11:50:14.167Z,17.77
2018-09-22T11:52:42.983Z,17.82
2018-09-22T11:55:11.685Z,17.89
2018-09-22T11:57:40.637Z,17.97
2018-09-22T12:00:09.447Z,18.02
2018-09-22T12:02:38.213Z,18.14
2018-09-22T12:05:07.111Z,18.11
2018-09-22T12:07:35.847Z,18.11
2018-09-22T12:10:04.580Z,18.03
2018-09-22T12:12:33.361Z,18.09
2018-09-22T12:15:02.574Z,18.13
2018-09-22T12:17:31.292Z,18.21
2018-09-22T12:19:59.949Z,18.33
2018-09-22T12:22:28.621Z,18.54
2018-09-22T12:24:57.567Z,18.60
2018-09-22T12:27:26.623Z,18.85
2018-09-22T12:29:56.254Z,19.18
2018-09-22T12:32:24.856Z,19.32
2018-09-22T12:34:53.800Z,19.35
2018-09-22T12:37:24.554Z,19.26
2018-09-22T12:39:53.721Z,19.15
2018-09-22T12:42:22.577Z,18.91
2018-09-22T12:44:51.129Z,18.69
2018-09-22T12:47:19.734Z,18.64
2018-09-22T12:49:48.283Z,18.62
2018-09-22T12:52:16.899Z,18.56
2018-09-22T12:54:46.095Z,18.64
2018-09-22T12:57:16.261Z,18.76
2018-09-22T12:59:46.608Z,18.71
2018-09-22T13:02:15.493Z,18.52
2018-09-22T13:04:44.088Z,18.43
2018-09-22T13:07:12.824Z,18.45
2018-09-22T13:09:41.351Z,18.80
2018-09-22T13:12:12.033Z,18.96
2018-09-22T13:17:21.341Z,18.78
2018-09-22T13:19:51.710Z,18.65
2018-09-22T13:22:20.279Z,18.47
2018-09-22T13:24:51.490Z,18.39
2018-09-22T13:27:20.181Z,18.32
2018-09-22T13:29:48.731Z,18.32
2018-09-22T13:32:18.343Z,18.41
2018-09-22T13:34:47.021Z,18.44
2018-09-22T13:37:15.824Z,18.49
2018-09-22T13:39:44.422Z,18.44
2018-09-22T13:42:13.129Z,18.41
2018-09-22T13:44:41.817Z,18.36
2018-09-22T13:47:10.361Z,18.30
2018-09-22T13:49:39.217Z,18.30
2018-09-22T13:52:07.761Z,18.28
2018-09-22T13:54:36.491Z,18.26
2018-09-22T13:57:05.096Z,18.24
2018-09-22T13:59:33.755Z,18.22
2018-09-22T14:02:02.409Z,18.23
2018-09-22T14:04:31.299Z,18.18
2018-09-22T14:07:00.040Z,18.13
2018-09-22T14:09:28.929Z,18.02
2018-09-22T14:11:57.688Z,18.07
2018-09-22T14:14:26.257Z,18.02
2018-09-22T14:16:55.317Z,18.07
2018-09-22T14:19:24.052Z,18.09
2018-09-22T14:21:52.730Z,18.12
2018-09-22T14:24:21.309Z,18.09
2018-09-22T14:26:50.111Z,18.12
2018-09-22T14:29:18.997Z,18.12
2018-09-22T14:31:47.632Z,18.08
2018-09-22T14:34:16.273Z,18.08
2018-09-22T14:36:45.098Z,18.02
2018-09-22T14:39:13.659Z,18.00
2018-09-22T14:41:42.261Z,18.01
2018-09-22T14:44:10.885Z,17.96
2018-09-22T14:46:39.449Z,17.95
2018-09-22T14:49:07.962Z,17.90
2018-09-22T14:51:36.459Z,17.88
2018-09-22T14:54:05.018Z,17.93
2018-09-22T14:56:33.683Z,17.93
2018-09-22T14:59:02.174Z,17.94
2018-09-22T15:01:31.049Z,17.94
2018-09-22T15:03:59.929Z,17.97
2018-09-22T15:06:28.945Z,17.95
2018-09-22T15:08:58.231Z,17.95
2018-09-22T15:11:27.643Z,17.95
2018-09-22T15:13:56.107Z,17.87
2018-09-22T15:16:24.611Z,17.87
2018-09-22T15:18:53.297Z,17.85
2018-09-22T15:21:21.880Z,17.81
2018-09-22T15:23:50.568Z,17.84
2018-09-22T15:26:19.213Z,17.84
2018-09-22T15:28:48.655Z,17.88
2018-09-22T15:31:17.279Z,17.89
2018-09-22T15:33:45.938Z,17.91
2018-09-22T15:36:14.591Z,17.91
2018-09-22T15:38:43.237Z,17.91
2018-09-22T15:41:11.853Z,17.87
2018-09-22T15:43:40.579Z,17.85
2018-09-22T15:46:09.245Z,17.86
2018-09-22T15:48:37.846Z,17.84
2018-09-22T15:51:06.627Z,17.87
2018-09-22T15:53:35.180Z,17.88
2018-09-22T15:56:04.083Z,17.85
2018-09-22T15:58:32.771Z,17.83
2018-09-22T16:01:01.576Z,17.80
2018-09-22T16:03:30.049Z,17.78
2018-09-22T16:05:58.740Z,17.76
2018-09-22T16:08:27.345Z,17.73
2018-09-22T16:10:55.795Z,17.72
2018-09-22T16:13:25.215Z,17.78
2018-09-22T16:15:54.827Z,17.75
2018-09-22T16:18:23.598Z,17.69
2018-09-22T16:20:52.295Z,17.65
2018-09-22T16:23:21.880Z,17.64
2018-09-22T16:25:50.575Z,17.65
2018-09-22T16:28:19.670Z,17.68
2018-09-22T16:30:48.287Z,17.62
2018-09-22T16:33:17.365Z,17.58
2018-09-22T16:35:46.134Z,17.54
2018-09-22T16:38:14.911Z,17.51
2018-09-22T16:40:43.585Z,17.48
2018-09-22T16:43:12.203Z,17.49
2018-09-22T16:45:40.817Z,17.55
2018-09-22T16:48:09.447Z,17.53
2018-09-22T16:50:38.065Z,17.48
2018-09-22T16:53:06.618Z,17.47
2018-09-22T16:55:35.283Z,17.39
2018-09-22T16:58:04.133Z,17.39
2018-09-22T17:00:32.623Z,17.37
2018-09-22T17:03:01.471Z,17.35
2018-09-22T17:05:30.075Z,17.35
2018-09-22T17:07:58.535Z,17.35
2018-09-22T17:10:27.153Z,17.35
2018-09-22T17:12:55.800Z,17.31
2018-09-22T17:15:24.325Z,17.29
2018-09-22T17:17:52.895Z,17.28
2018-09-22T17:20:21.603Z,17.24
2018-09-22T17:22:50.372Z,17.20
2018-09-22T17:25:18.947Z,17.19
2018-09-22T17:27:47.729Z,17.18
2018-09-22T17:30:16.265Z,17.15
2018-09-22T17:32:44.739Z,17.15
2018-09-22T17:35:13.468Z,17.14
2018-09-22T17:37:42.106Z,17.13
2018-09-22T17:40:10.814Z,17.13
2018-09-22T17:42:39.316Z,17.13
2018-09-22T17:45:08.014Z,17.15
2018-09-22T17:47:36.685Z,17.16
2018-09-22T17:50:05.597Z,17.15
2018-09-22T17:52:34.189Z,17.12
2018-09-22T17:55:02.977Z,17.12
2018-09-22T17:57:31.721Z,17.10
2018-09-22T18:00:00.427Z,17.08
2018-09-22T18:02:28.991Z,17.05
2018-09-22T18:04:57.637Z,17.06
2018-09-22T18:07:26.327Z,17.04
2018-09-22T18:09:54.969Z,17.01
2018-09-22T18:12:23.533Z,17.02
2018-09-22T18:14:52.159Z,17.03
2018-09-22T18:17:20.845Z,17.02
2018-09-22T18:19:49.739Z,17.05
2018-09-22T18:22:18.416Z,17.06
2018-09-22T18:24:47.245Z,17.06
2018-09-22T18:27:15.791Z,17.13
2018-09-22T18:29:44.453Z,17.11
2018-09-22T18:32:13.157Z,17.09
2018-09-22T18:34:42.620Z,17.10
2018-09-22T18:37:11.145Z,17.07
2018-09-22T18:39:39.785Z,17.01
2018-09-22T18:42:08.467Z,16.98
2018-09-22T18:44:37.094Z,16.98
2018-09-22T18:47:05.703Z,16.95
2018-09-22T18:49:34.351Z,16.93
2018-09-22T18:52:03.112Z,16.96
2018-09-22T18:54:31.844Z,16.89
2018-09-22T18:57:00.411Z,16.85
2018-09-22T18:59:29.051Z,16.84
2018-09-22T19:01:58.203Z,16.81
2018-09-22T19:04:27.099Z,16.80
2018-09-22T19:06:55.707Z,16.84
2018-09-22T19:09:24.520Z,16.81
2018-09-22T19:11:54.405Z,16.81
2018-09-22T19:14:31.746Z,16.83
2018-09-22T19:17:05.765Z,16.77
2018-09-22T19:19:39.753Z,16.77
2018-09-22T19:22:11.455Z,16.73
2018-09-22T19:24:47.116Z,16.73
2018-09-22T19:27:18.888Z,16.71
2018-09-22T19:29:51.372Z,16.72
2018-09-22T19:32:27.073Z,16.72
2018-09-22T19:35:33.282Z,16.66
2018-09-22T19:38:09.078Z,16.62
2018-09-22T19:40:47.347Z,16.58
2018-09-22T19:43:25.867Z,16.55
2018-09-22T19:45:57.452Z,16.46
2018-09-22T19:48:34.118Z,16.43
2018-09-22T19:51:05.520Z,16.39
2018-09-22T19:53:34.171Z,16.37
2018-09-22T19:56:02.848Z,16.35
2018-09-22T19:58:31.827Z,16.38
2018-09-22T20:01:00.422Z,16.36
2018-09-22T20:03:29.047Z,16.37
2018-09-22T20:05:57.583Z,16.36
2018-09-22T20:08:26.307Z,16.34
2018-09-22T20:10:54.880Z,16.29
2018-09-22T20:13:23.985Z,16.27
2018-09-22T20:15:52.755Z,16.33
2018-09-22T20:18:21.537Z,16.28
2018-09-22T20:20:51.276Z,16.25
2018-09-22T20:23:19.855Z,16.25
2018-09-22T20:25:48.455Z,16.26
2018-09-22T20:28:17.199Z,16.28
2018-09-22T20:30:46.589Z,16.25
2018-09-22T20:33:15.186Z,16.20
2018-09-22T20:35:44.141Z,16.15
2018-09-22T20:38:16.020Z,16.06
2018-09-22T20:40:45.572Z,16.03
2018-09-22T20:45:53.118Z,15.91
2018-09-22T20:48:22.132Z,15.88
2018-09-22T20:50:52.491Z,15.89
2018-09-22T20:53:21.001Z,15.78
2018-09-22T20:55:49.770Z,15.72
2018-09-22T20:58:18.228Z,15.62
2018-09-22T21:00:46.749Z,15.61
2018-09-22T21:03:15.227Z,15.53
2018-09-22T21:05:43.963Z,15.48
2018-09-22T21:08:12.490Z,15.46
2018-09-22T21:10:41.095Z,15.42
2018-09-22T21:13:09.700Z,15.33
2018-09-22T21:15:38.404Z,15.31
2018-09-22T21:18:07.056Z,15.28
2018-09-22T21:20:35.648Z,15.31
2018-09-22T21:23:04.199Z,15.28
2018-09-22T21:25:32.716Z,15.28
2018-09-22T21:28:01.323Z,15.30
2018-09-22T21:30:29.910Z,15.28
2018-09-22T21:32:58.543Z,15.28
2018-09-22T21:35:27.086Z,15.28
2018-09-22T21:37:55.645Z,15.32
2018-09-22T21:40:24.332Z,15.27
2018-09-22T21:42:52.911Z,15.26
2018-09-22T21:45:21.496Z,15.25
2018-09-22T21:47:50.104Z,15.22
2018-09-22T21:50:18.974Z,15.20
2018-09-22T21:52:47.866Z,15.20
2018-09-22T21:55:16.480Z,15.22
2018-09-22T21:57:45.246Z,15.18
2018-09-22T22:00:13.986Z,15.16
2018-09-22T22:02:42.590Z,15.14
2018-09-22T22:05:11.164Z,15.13
2018-09-22T22:07:39.677Z,15.08
2018-09-22T22:10:08.267Z,15.00
2018-09-22T22:12:36.845Z,14.96
2018-09-22T22:15:05.598Z,14.92
2018-09-22T22:17:34.118Z,14.87
2018-09-22T22:20:02.618Z,14.83
2018-09-22T22:22:31.188Z,14.82
2018-09-22T22:24:59.774Z,14.86
2018-09-22T22:27:28.216Z,14.82
2018-09-22T22:29:57.346Z,14.74
2018-09-22T22:32:25.874Z,14.74
2018-09-22T22:34:54.582Z,14.72
2018-09-22T22:37:24.022Z,14.71
2018-09-22T22:39:52.565Z,14.69
2018-09-22T22:42:20.986Z,14.66
2018-09-22T22:44:49.622Z,14.58
2018-09-22T22:47:18.372Z,14.59
2018-09-22T22:49:46.998Z,14.57
2018-09-22T22:52:15.745Z,14.58
2018-09-22T22:54:44.298Z,14.58
2018-09-22T22:57:12.704Z,14.57
2018-09-22T22:59:41.291Z,14.59
2018-09-22T23:02:10.868Z,14.57
2018-09-22T23:04:39.416Z,14.59
2018-09-22T23:07:07.958Z,14.52
2018-09-22T23:09:36.609Z,14.50
2018-09-22T23:12:05.175Z,14.48
2018-09-22T23:14:33.759Z,14.48
2018-09-22T23:17:02.278Z,14.48
2018-09-22T23:19:30.871Z,14.46
2018-09-22T23:21:59.442Z,14.43
2018-09-22T23:24:28.182Z,14.46
2018-09-22T23:26:56.714Z,14.46
2018-09-22T23:29:25.253Z,14.50
2018-09-22T23:31:54.184Z,14.48
2018-09-22T23:34:22.762Z,14.47
2018-09-22T23:36:51.361Z,14.46
2018-09-22T23:39:19.992Z,14.47
2018-09-22T23:41:48.648Z,14.46
2018-09-22T23:44:17.316Z,14.43
2018-09-22T23:46:45.948Z,14.42
2018-09-22T23:49:14.478Z,14.38
2018-09-22T23:51:43.166Z,14.36
2018-09-22T23:54:11.764Z,14.32
2018-09-22T23:56:40.364Z,14.28
2018-09-22T23:59:09.182Z,14.26
